Time;durP1;ratioP1;P1;durP2;ratioP2;P2;SDS_P1;SDS_P2;PMS_P1;PMS_P2;Temp;Humidity;BMP_temperature;BMP_pressure;BME280_temperature;BME280_humidity;BME280_pressure;Samples;Min_cycle;Max_cycle;Signal;HPM_P1;HPM_P2
2021/12/01 00:00:48;;;;;;;5.68;1.75;;;11.00;99.90;;;;;;5019119;28;20057;-54
2021/12/01 00:03:14;;;;;;;4.95;1.95;;;11.00;99.90;;;;;;5022316;28;20457;-55
2021/12/01 00:05:42;;;;;;;7.97;2.28;;;11.00;99.90;;;;;;5020206;28;20141;-56
2021/12/01 00:08:09;;;;;;;5.53;1.88;;;11.00;99.90;;;;;;5018078;28;20053;-55
2021/12/01 00:10:36;;;;;;;7.32;1.80;;;11.00;99.90;;;;;;5021847;28;20138;-54
2021/12/01 00:13:04;;;;;;;3.20;1.70;;;11.00;99.90;;;;;;5021947;28;20076;-53
2021/12/01 00:15:30;;;;;;;3.88;1.50;;;11.00;99.90;;;;;;5019345;28;20077;-54
2021/12/01 00:17:57;;;;;;;4.07;1.52;;;11.00;99.90;;;;;;5021982;28;20087;-56
2021/12/01 00:20:24;;;;;;;3.53;1.52;;;11.00;99.90;;;;;;5021468;28;20132;-56
2021/12/01 00:22:51;;;;;;;4.70;1.10;;;11.00;99.90;;;;;;5021831;28;20119;-53
2021/12/01 00:25:22;;;;;;;2.72;1.20;;;11.00;99.90;;;;;;5020712;28;20118;-57
2021/12/01 00:27:53;;;;;;;5.47;1.70;;;10.90;99.90;;;;;;5021398;28;20099;-56
2021/12/01 00:30:19;;;;;;;3.45;1.00;;;10.90;99.90;;;;;;5020830;28;20465;-56
2021/12/01 00:32:46;;;;;;;2.63;0.70;;;10.90;99.90;;;;;;5020265;28;20073;-57
2021/12/01 00:35:13;;;;;;;4.50;1.08;;;10.90;99.90;;;;;;5021452;28;20145;-55
2021/12/01 00:37:41;;;;;;;2.85;0.98;;;10.90;99.90;;;;;;5021308;28;20060;-55
2021/12/01 00:40:09;;;;;;;3.22;0.70;;;10.90;99.90;;;;;;5020021;28;20119;-57
2021/12/01 00:42:36;;;;;;;1.77;0.60;;;11.00;99.90;;;;;;5021283;28;20419;-55
2021/12/01 00:45:11;;;;;;;4.88;0.75;;;11.00;99.90;;;;;;5020393;28;20107;-54
2021/12/01 00:47:45;;;;;;;1.48;0.55;;;11.00;99.90;;;;;;5021834;28;20466;-56
2021/12/01 00:50:14;;;;;;;1.85;0.77;;;11.00;99.90;;;;;;5020482;28;20049;-53
2021/12/01 00:52:40;;;;;;;2.35;0.77;;;11.00;99.90;;;;;;5023414;28;20401;-57
2021/12/01 00:55:07;;;;;;;5.40;1.20;;;11.00;99.90;;;;;;5025595;28;20139;-56
2021/12/01 00:57:34;;;;;;;2.35;0.80;;;11.00;99.90;;;;;;5024843;28;20144;-57
2021/12/01 01:00:03;;;;;;;2.50;0.80;;;11.00;99.90;;;;;;5024263;28;20087;-57
2021/12/01 01:02:30;;;;;;;1.98;0.90;;;11.00;99.90;;;;;;5004438;28;20104;-56
2021/12/01 01:04:57;;;;;;;2.65;0.90;;;11.00;99.90;;;;;;5019736;28;20421;-56
2021/12/01 01:07:24;;;;;;;1.75;0.63;;;11.00;99.90;;;;;;5024833;28;20168;-57
2021/12/01 01:09:51;;;;;;;2.67;0.65;;;11.00;99.90;;;;;;5025182;28;20473;-56
2021/12/01 01:18:02;;;;;;;2.03;0.70;;;11.00;99.90;;;;;;5023002;28;20073;-56
2021/12/01 01:20:29;;;;;;;1.00;0.50;;;11.00;99.90;;;;;;5025153;28;20065;-57
2021/12/01 01:22:56;;;;;;;1.85;0.77;;;11.00;99.90;;;;;;5025145;28;20061;-55
2021/12/01 01:25:23;;;;;;;1.48;0.68;;;11.00;99.90;;;;;;5024898;28;20077;-55
2021/12/01 01:27:50;;;;;;;2.05;0.50;;;11.00;99.90;;;;;;5024210;28;20145;-57
2021/12/01 01:30:16;;;;;;;0.45;0.40;;;11.10;99.90;;;;;;5020689;28;20137;-57
2021/12/01 01:32:43;;;;;;;2.15;0.60;;;11.10;99.90;;;;;;5007837;28;20053;-55
2021/12/01 01:35:10;;;;;;;1.33;0.50;;;11.10;99.90;;;;;;5021741;28;20096;-55
2021/12/01 01:37:37;;;;;;;1.38;0.60;;;11.10;99.90;;;;;;5022987;28;20055;-56
2021/12/01 01:40:04;;;;;;;1.42;0.50;;;11.10;99.90;;;;;;5025946;28;20069;-52
2021/12/01 01:42:31;;;;;;;1.25;0.60;;;11.20;99.90;;;;;;5026975;28;20103;-53
2021/12/01 01:44:57;;;;;;;1.75;0.63;;;11.20;99.90;;;;;;5026901;28;20092;-55
2021/12/01 01:47:24;;;;;;;3.38;1.15;;;11.20;99.90;;;;;;5027164;28;20081;-54
2021/12/01 01:49:59;;;;;;;1.30;0.60;;;11.10;99.90;;;;;;5027354;28;20058;-56
2021/12/01 01:52:27;;;;;;;1.42;0.60;;;11.10;99.90;;;;;;5025038;28;20133;-55
2021/12/01 01:54:54;;;;;;;1.33;0.60;;;11.10;99.90;;;;;;5009490;28;20157;-56
2021/12/01 01:57:21;;;;;;;0.95;0.50;;;11.10;99.90;;;;;;5004714;28;20077;-54
2021/12/01 01:59:47;;;;;;;0.70;0.43;;;11.00;99.90;;;;;;5010239;28;20076;-56
2021/12/01 02:02:14;;;;;;;1.27;0.40;;;10.90;99.90;;;;;;5022679;28;20080;-55
2021/12/01 02:04:41;;;;;;;1.60;0.50;;;10.90;99.90;;;;;;5022448;28;20052;-56
2021/12/01 02:07:09;;;;;;;2.53;0.65;;;10.80;99.90;;;;;;5024601;28;20057;-56
2021/12/01 02:09:36;;;;;;;3.20;0.77;;;10.80;99.90;;;;;;5024348;28;20057;-56
2021/12/01 02:12:03;;;;;;;1.98;0.57;;;10.80;99.90;;;;;;5024371;28;20141;-55
2021/12/01 02:14:30;;;;;;;1.25;0.50;;;10.80;99.90;;;;;;5021325;28;20396;-54
2021/12/01 02:16:57;;;;;;;2.35;0.50;;;10.80;99.90;;;;;;5023992;28;20080;-54
2021/12/01 02:19:24;;;;;;;1.52;0.55;;;10.80;99.90;;;;;;5024359;28;20075;-56
2021/12/01 02:21:51;;;;;;;1.92;0.68;;;10.80;99.90;;;;;;5027747;28;20084;-55
2021/12/01 02:24:21;;;;;;;2.70;0.80;;;10.80;99.90;;;;;;5027232;28;20077;-56
2021/12/01 02:26:49;;;;;;;1.73;0.57;;;10.80;99.90;;;;;;5025688;28;20137;-56
2021/12/01 02:29:18;;;;;;;2.67;0.70;;;10.80;99.90;;;;;;5025688;28;20420;-55
2021/12/01 02:31:45;;;;;;;1.55;0.85;;;10.80;99.90;;;;;;5027843;28;20083;-56
2021/12/01 02:34:20;;;;;;;1.27;0.40;;;10.80;99.90;;;;;;5026806;28;20107;-56
2021/12/01 02:36:51;;;;;;;3.38;0.98;;;10.70;99.90;;;;;;5029233;28;20088;-54
2021/12/01 02:39:18;;;;;;;2.03;0.88;;;10.70;99.90;;;;;;5028931;28;20121;-56
2021/12/01 02:41:49;;;;;;;3.42;0.90;;;10.70;99.90;;;;;;5029056;28;20092;-56
2021/12/01 02:44:17;;;;;;;5.07;1.20;;;10.70;99.90;;;;;;5026774;28;20114;-54
2021/12/01 02:46:44;;;;;;;4.57;0.90;;;10.70;99.90;;;;;;5027104;28;20080;-56
2021/12/01 02:49:12;;;;;;;4.55;1.20;;;10.70;99.90;;;;;;5027182;28;20085;-61
2021/12/01 02:51:39;;;;;;;2.67;0.93;;;10.80;99.90;;;;;;5027623;28;20772;-55
2021/12/01 02:54:06;;;;;;;2.85;0.98;;;10.80;99.90;;;;;;5027140;28;20081;-53
2021/12/01 02:56:33;;;;;;;1.88;0.85;;;10.80;99.90;;;;;;5027204;28;20150;-58
2021/12/01 02:59:01;;;;;;;4.03;0.82;;;10.70;99.90;;;;;;5027084;28;20069;-53
2021/12/01 03:01:28;;;;;;;2.78;0.93;;;10.60;99.90;;;;;;5026044;28;20076;-52
2021/12/01 03:03:55;;;;;;;4.93;1.10;;;10.60;99.90;;;;;;5024632;28;20128;-56
2021/12/01 03:06:24;;;;;;;4.28;0.95;;;10.60;99.90;;;;;;5025846;28;20132;-56
2021/12/01 03:08:51;;;;;;;3.63;1.08;;;10.60;99.90;;;;;;5027284;28;20136;-55
2021/12/01 03:11:18;;;;;;;3.63;0.93;;;10.60;99.90;;;;;;5026585;28;20081;-56
2021/12/01 03:13:45;;;;;;;2.35;0.68;;;10.60;99.90;;;;;;5024618;28;20485;-55
2021/12/01 03:16:11;;;;;;;0.90;0.55;;;10.50;99.90;;;;;;5025170;28;20136;-56
2021/12/01 03:18:38;;;;;;;4.43;1.52;;;10.50;99.90;;;;;;5026743;28;20057;-55
2021/12/01 03:21:05;;;;;;;3.35;0.80;;;10.50;99.90;;;;;;5025519;28;20137;-54
2021/12/01 03:23:32;;;;;;;4.15;0.88;;;10.50;99.90;;;;;;5026323;28;20088;-56
2021/12/01 03:25:59;;;;;;;2.60;1.05;;;10.50;99.90;;;;;;5026464;28;20140;-56
2021/12/01 03:28:25;;;;;;;3.15;0.70;;;10.50;99.90;;;;;;5026650;28;20144;-55
2021/12/01 03:30:52;;;;;;;2.08;0.70;;;10.40;99.90;;;;;;5025466;28;20089;-56
2021/12/01 03:33:20;;;;;;;1.73;0.90;;;10.40;99.90;;;;;;5026300;28;20081;-56
2021/12/01 03:35:48;;;;;;;3.22;1.02;;;10.40;99.90;;;;;;5024884;28;20077;-55
2021/12/01 03:38:16;;;;;;;4.28;1.27;;;10.40;99.90;;;;;;5025082;28;20128;-56
2021/12/01 03:40:43;;;;;;;2.65;0.82;;;10.50;99.90;;;;;;5025751;28;20142;-57
2021/12/01 03:43:10;;;;;;;2.35;1.08;;;10.50;99.90;;;;;;5024466;28;20046;-55
2021/12/01 03:45:37;;;;;;;2.38;0.90;;;10.50;99.90;;;;;;5025371;28;20049;-56
2021/12/01 03:48:04;;;;;;;2.30;1.08;;;10.50;99.90;;;;;;5023080;28;20053;-56
2021/12/01 03:50:31;;;;;;;4.95;1.17;;;10.50;99.90;;;;;;5024935;28;20099;-56
2021/12/01 03:52:58;;;;;;;2.10;1.08;;;10.50;99.90;;;;;;5025022;28;20092;-56
2021/12/01 03:55:25;;;;;;;2.45;1.20;;;10.40;99.90;;;;;;5006818;28;20137;-55
2021/12/01 03:57:51;;;;;;;6.35;1.17;;;10.40;99.90;;;;;;5020847;28;20107;-54
2021/12/01 04:00:18;;;;;;;3.50;1.20;;;10.40;99.90;;;;;;5006913;28;20132;-55
2021/12/01 04:02:45;;;;;;;3.70;1.42;;;10.40;99.90;;;;;;5026056;28;20584;-54
2021/12/01 04:05:12;;;;;;;3.92;1.27;;;10.50;99.90;;;;;;5024011;28;20133;-55
2021/12/01 04:07:39;;;;;;;6.72;1.60;;;10.50;99.90;;;;;;5025775;28;20088;-56
2021/12/01 04:10:09;;;;;;;2.85;1.50;;;10.50;99.90;;;;;;5025857;28;20123;-55
2021/12/01 04:12:35;;;;;;;3.25;1.50;;;10.50;99.90;;;;;;5025311;28;20121;-53
2021/12/01 04:15:03;;;;;;;3.92;1.42;;;10.50;99.90;;;;;;5025140;28;20077;-54
2021/12/01 04:17:30;;;;;;;2.85;1.33;;;10.50;99.90;;;;;;5026432;28;20049;-56
2021/12/01 04:19:56;;;;;;;4.90;2.00;;;10.50;99.90;;;;;;5024809;28;20419;-56
2021/12/01 04:22:23;;;;;;;2.45;1.60;;;10.50;99.90;;;;;;5025466;28;20045;-55
2021/12/01 04:24:50;;;;;;;3.15;1.30;;;10.50;99.90;;;;;;5025077;28;20076;-56
2021/12/01 04:27:17;;;;;;;6.20;1.70;;;10.50;99.90;;;;;;5023751;28;20053;-57
2021/12/01 04:29:44;;;;;;;3.80;2.30;;;10.50;99.90;;;;;;5024672;28;20207;-56
2021/12/01 04:32:10;;;;;;;4.13;1.45;;;10.60;99.90;;;;;;5025165;28;20677;-56
2021/12/01 04:34:37;;;;;;;4.97;1.40;;;10.60;99.90;;;;;;5024517;28;20104;-53
2021/12/01 04:37:04;;;;;;;6.05;1.92;;;10.60;99.90;;;;;;5026212;28;20132;-55
2021/12/01 04:39:31;;;;;;;4.78;1.63;;;10.60;99.90;;;;;;5025610;28;20049;-55
2021/12/01 04:42:05;;;;;;;4.88;1.45;;;10.60;99.90;;;;;;5025061;28;20136;-56
2021/12/01 04:44:33;;;;;;;5.35;1.50;;;10.60;99.90;;;;;;5024231;28;20143;-56
2021/12/01 04:47:02;;;;;;;3.05;1.23;;;10.60;99.90;;;;;;5026171;28;20085;-56
2021/12/01 04:49:31;;;;;;;4.35;1.65;;;10.60;99.90;;;;;;5024849;28;20599;-55
2021/12/01 04:51:59;;;;;;;4.10;1.10;;;10.70;99.90;;;;;;5024343;28;20077;-56
2021/12/01 04:54:26;;;;;;;5.93;1.70;;;10.70;99.90;;;;;;5007538;28;20199;-55
2021/12/01 04:56:53;;;;;;;3.47;1.10;;;10.70;99.90;;;;;;5025901;28;20088;-55
2021/12/01 04:59:20;;;;;;;5.57;1.23;;;10.80;99.90;;;;;;5024131;28;20137;-55
2021/12/01 05:01:47;;;;;;;4.53;1.48;;;10.80;99.90;;;;;;5024968;28;20177;-57
2021/12/01 05:04:14;;;;;;;2.28;1.10;;;10.80;99.90;;;;;;5024669;28;20048;-56
2021/12/01 05:06:41;;;;;;;4.35;1.58;;;10.70;99.90;;;;;;5024626;28;20049;-56
2021/12/01 05:09:09;;;;;;;4.03;1.40;;;10.70;99.90;;;;;;5025256;28;20446;-56
2021/12/01 05:11:36;;;;;;;4.25;1.17;;;10.70;99.90;;;;;;5025307;28;20230;-55
2021/12/01 05:14:09;;;;;;;2.83;1.10;;;10.70;99.90;;;;;;5024672;28;20075;-55
2021/12/01 05:16:37;;;;;;;3.00;1.33;;;10.70;99.90;;;;;;5025210;28;20081;-56
2021/12/01 05:19:05;;;;;;;2.70;1.00;;;10.70;99.90;;;;;;5025381;28;20402;-56
2021/12/01 05:21:32;;;;;;;2.83;1.10;;;10.70;99.90;;;;;;5025139;28;20053;-57
2021/12/01 05:24:00;;;;;;;2.55;1.08;;;10.70;99.90;;;;;;5024986;28;20719;-56
2021/12/01 05:26:27;;;;;;;2.78;0.90;;;10.70;99.90;;;;;;5025540;28;20121;-57
2021/12/01 05:28:53;;;;;;;3.05;0.90;;;10.70;99.90;;;;;;5025040;28;20077;-57
2021/12/01 05:31:20;;;;;;;2.95;0.73;;;10.70;99.90;;;;;;5022148;28;20077;-57
2021/12/01 05:33:47;;;;;;;1.50;0.80;;;10.70;99.90;;;;;;5024656;28;20045;-55
2021/12/01 05:36:14;;;;;;;1.17;0.70;;;10.70;99.90;;;;;;5025460;28;20120;-55
2021/12/01 05:38:40;;;;;;;2.08;0.60;;;10.70;99.90;;;;;;5026977;28;20077;-57
2021/12/01 05:41:07;;;;;;;2.80;0.82;;;10.70;99.90;;;;;;5028325;28;20128;-56
2021/12/01 05:43:34;;;;;;;2.35;0.77;;;10.60;99.90;;;;;;5028648;28;20091;-55
2021/12/01 05:46:01;;;;;;;1.63;0.55;;;10.60;99.90;;;;;;5027889;28;20119;-56
2021/12/01 05:48:28;;;;;;;1.92;0.50;;;10.60;99.90;;;;;;5024569;28;20421;-54
2021/12/01 05:50:54;;;;;;;2.30;0.60;;;10.50;99.90;;;;;;5026344;28;20085;-55
2021/12/01 05:53:21;;;;;;;1.45;0.60;;;10.50;99.90;;;;;;5026772;28;20128;-55
2021/12/01 05:55:48;;;;;;;1.90;0.85;;;10.50;99.90;;;;;;5026145;28;20053;-52
2021/12/01 05:58:14;;;;;;;1.25;0.50;;;10.50;99.90;;;;;;5025590;28;20100;-54
2021/12/01 06:00:41;;;;;;;1.40;0.55;;;10.50;99.90;;;;;;5021200;28;20122;-56
2021/12/01 06:03:08;;;;;;;1.25;0.50;;;10.40;99.90;;;;;;5020671;28;20049;-56
2021/12/01 06:05:36;;;;;;;0.55;0.45;;;10.40;99.90;;;;;;5019389;28;20079;-56
2021/12/01 06:08:03;;;;;;;1.23;0.57;;;10.40;99.90;;;;;;5017744;28;20472;-52
2021/12/01 06:10:30;;;;;;;1.27;0.52;;;10.40;99.90;;;;;;5018891;28;20135;-55
2021/12/01 06:12:57;;;;;;;0.73;0.30;;;10.30;99.90;;;;;;5020475;28;20137;-56
2021/12/01 06:15:24;;;;;;;1.67;0.60;;;10.30;99.90;;;;;;5018115;28;20073;-58
2021/12/01 06:17:51;;;;;;;1.95;0.60;;;10.30;99.90;;;;;;5020606;28;20164;-58
2021/12/01 06:20:17;;;;;;;1.05;0.50;;;10.30;99.90;;;;;;5018092;28;20144;-56
2021/12/01 06:22:44;;;;;;;1.20;0.65;;;10.30;99.90;;;;;;5021254;28;20137;-55
2021/12/01 06:25:11;;;;;;;1.27;0.70;;;10.20;99.90;;;;;;5016993;28;20079;-55
2021/12/01 06:27:38;;;;;;;1.95;0.50;;;10.20;99.90;;;;;;5019248;28;20103;-55
2021/12/01 06:30:05;;;;;;;1.38;0.50;;;10.20;99.90;;;;;;5018049;28;20145;-56
2021/12/01 06:32:32;;;;;;;1.15;0.40;;;10.20;99.90;;;;;;5019789;28;20077;-55
2021/12/01 06:34:59;;;;;;;1.65;0.50;;;10.20;99.90;;;;;;5019484;28;20057;-56
2021/12/01 06:37:26;;;;;;;1.35;0.40;;;10.00;99.90;;;;;;5020381;28;20122;-56
2021/12/01 06:39:52;;;;;;;1.40;0.40;;;9.70;99.90;;;;;;5019306;28;20754;-56
2021/12/01 06:42:19;;;;;;;1.00;0.35;;;9.30;99.90;;;;;;5019137;28;20100;-54
2021/12/01 06:44:46;;;;;;;1.30;0.63;;;9.00;99.90;;;;;;5018631;28;20081;-55
2021/12/01 06:47:13;;;;;;;0.43;0.30;;;8.80;99.90;;;;;;5019703;28;20151;-55
2021/12/01 06:49:44;;;;;;;0.38;0.38;;;8.70;99.90;;;;;;5016987;28;20099;-59
2021/12/01 06:52:13;;;;;;;0.75;0.40;;;8.60;99.90;;;;;;5016211;28;20148;-55
2021/12/01 06:54:40;;;;;;;0.30;0.30;;;8.60;99.90;;;;;;5018046;28;20045;-57
2021/12/01 06:57:07;;;;;;;1.00;0.60;;;8.60;99.90;;;;;;5016234;28;20052;-51
2021/12/01 06:59:34;;;;;;;0.40;0.40;;;8.60;99.90;;;;;;5017674;28;20076;-55
2021/12/01 07:02:00;;;;;;;1.00;0.47;;;8.50;99.90;;;;;;5018359;28;20164;-56
2021/12/01 07:04:29;;;;;;;2.47;0.80;;;8.50;99.90;;;;;;5018468;28;20049;-56
2021/12/01 07:06:58;;;;;;;1.92;0.50;;;8.50;99.90;;;;;;5019170;28;20132;-56
2021/12/01 07:09:26;;;;;;;2.00;0.65;;;8.40;99.90;;;;;;5018244;28;20045;-56
2021/12/01 07:11:52;;;;;;;0.98;0.50;;;8.40;99.90;;;;;;5017808;28;20133;-57
2021/12/01 07:14:19;;;;;;;0.30;0.30;;;8.30;99.90;;;;;;5016845;28;20148;-55
2021/12/01 07:16:46;;;;;;;1.27;0.40;;;8.30;99.90;;;;;;5019220;28;20124;-56
2021/12/01 07:19:13;;;;;;;0.40;0.30;;;8.30;99.90;;;;;;5016379;28;20045;-57
2021/12/01 07:21:39;;;;;;;0.50;0.30;;;8.30;99.90;;;;;;5015680;28;20617;-55
2021/12/01 07:24:06;;;;;;;0.98;0.40;;;8.40;99.90;;;;;;5019094;28;20108;-56
2021/12/01 07:26:35;;;;;;;0.60;0.40;;;8.40;99.90;;;;;;5018502;28;20203;-56
2021/12/01 07:29:02;;;;;;;1.92;0.43;;;8.40;99.90;;;;;;5017736;28;20073;-55
2021/12/01 07:31:29;;;;;;;0.80;0.30;;;8.40;99.90;;;;;;5017862;28;20057;-55
2021/12/01 07:33:56;;;;;;;1.15;0.35;;;8.50;99.90;;;;;;5019463;28;20045;-56
2021/12/01 07:36:23;;;;;;;1.35;0.40;;;8.50;99.90;;;;;;5019608;28;20144;-55
2021/12/01 07:38:50;;;;;;;0.30;0.30;;;8.50;99.90;;;;;;5018693;28;20092;-57
2021/12/01 07:41:17;;;;;;;1.40;0.50;;;8.60;99.90;;;;;;5019429;28;20457;-56
2021/12/01 07:43:44;;;;;;;0.55;0.40;;;8.60;99.90;;;;;;5017769;28;20081;-56
2021/12/01 07:46:11;;;;;;;0.43;0.40;;;8.60;99.90;;;;;;5018911;28;20144;-56
2021/12/01 07:48:38;;;;;;;0.57;0.30;;;8.60;99.90;;;;;;5018995;28;20100;-56
2021/12/01 07:51:05;;;;;;;0.70;0.40;;;8.60;99.90;;;;;;5018958;28;20731;-56
2021/12/01 07:53:32;;;;;;;1.08;0.45;;;8.70;99.90;;;;;;5019784;28;20681;-57
2021/12/01 07:55:58;;;;;;;0.90;0.30;;;8.70;99.90;;;;;;5019355;28;20168;-55
2021/12/01 07:58:25;;;;;;;1.02;0.60;;;8.70;99.90;;;;;;5019022;28;20373;-51
2021/12/01 08:00:52;;;;;;;0.88;0.38;;;8.70;99.90;;;;;;5018316;28;20057;-56
2021/12/01 08:03:19;;;;;;;0.98;0.30;;;8.70;99.90;;;;;;5018803;28;20067;-56
2021/12/01 08:05:47;;;;;;;1.02;0.40;;;8.70;99.90;;;;;;5017652;28;20053;-58
2021/12/01 08:08:14;;;;;;;0.43;0.35;;;8.70;99.90;;;;;;5015473;28;20140;-56
2021/12/01 08:10:41;;;;;;;0.75;0.30;;;8.70;99.90;;;;;;5017873;28;20168;-56
2021/12/01 08:13:09;;;;;;;0.90;0.40;;;8.70;99.90;;;;;;5017886;28;20168;-55
2021/12/01 08:15:47;;;;;;;0.38;0.32;;;8.70;99.90;;;;;;5006064;28;20052;-56
2021/12/01 08:18:15;;;;;;;0.30;0.30;;;8.70;99.90;;;;;;5013418;28;20103;-57
2021/12/01 08:20:42;;;;;;;0.20;0.20;;;8.70;99.90;;;;;;5016581;28;20285;-55
2021/12/01 08:23:09;;;;;;;0.20;0.20;;;8.70;99.90;;;;;;5014007;28;20239;-56
2021/12/01 08:25:36;;;;;;;0.32;0.30;;;8.60;99.90;;;;;;5013231;28;20088;-56
2021/12/01 08:28:03;;;;;;;0.68;0.30;;;8.60;99.90;;;;;;5012308;28;20617;-55
2021/12/01 08:30:30;;;;;;;0.30;0.30;;;8.50;99.90;;;;;;5014951;28;20618;-55
2021/12/01 08:32:57;;;;;;;0.52;0.30;;;8.40;99.90;;;;;;5015743;28;20152;-56
2021/12/01 08:35:24;;;;;;;1.08;0.40;;;8.40;99.90;;;;;;5016897;28;20125;-56
2021/12/01 08:37:52;;;;;;;0.63;0.30;;;8.40;99.90;;;;;;5018196;28;20485;-56
2021/12/01 08:40:19;;;;;;;1.38;0.57;;;8.30;99.90;;;;;;5018281;28;20483;-56
2021/12/01 08:42:46;;;;;;;0.30;0.30;;;8.30;99.90;;;;;;5018071;28;20120;-56
2021/12/01 08:45:13;;;;;;;0.93;0.32;;;8.20;99.90;;;;;;5017027;28;20056;-56
2021/12/01 08:47:40;;;;;;;0.50;0.40;;;8.20;99.90;;;;;;5018211;28;20259;-53
2021/12/01 08:50:08;;;;;;;0.20;0.20;;;8.20;99.90;;;;;;5016889;28;20045;-57
2021/12/01 08:52:35;;;;;;;1.00;0.50;;;8.20;99.90;;;;;;5017109;28;20488;-56
2021/12/01 08:55:02;;;;;;;1.73;0.45;;;8.20;99.90;;;;;;5017815;28;20065;-56
2021/12/01 08:57:29;;;;;;;2.05;1.30;;;8.20;99.90;;;;;;5017883;28;20165;-54
2021/12/01 08:59:56;;;;;;;1.65;0.30;;;8.30;99.90;;;;;;5017268;28;20072;-57
2021/12/01 09:02:23;;;;;;;0.47;0.47;;;8.30;99.90;;;;;;5016345;28;20127;-54
2021/12/01 09:04:50;;;;;;;1.15;0.70;;;8.30;99.90;;;;;;5016128;28;20099;-58
2021/12/01 09:07:18;;;;;;;1.88;0.70;;;8.30;99.90;;;;;;5017167;28;20049;-56
2021/12/01 09:09:45;;;;;;;1.58;0.70;;;8.40;99.90;;;;;;5016660;28;20893;-55
2021/12/01 09:12:13;;;;;;;1.05;0.45;;;8.40;99.90;;;;;;5017029;28;20092;-55
2021/12/01 09:14:40;;;;;;;1.10;0.70;;;8.40;99.90;;;;;;5018467;28;20129;-56
2021/12/01 09:17:09;;;;;;;1.70;0.68;;;8.40;99.90;;;;;;5021947;28;20452;-56
2021/12/01 09:19:36;;;;;;;1.33;0.73;;;8.40;99.90;;;;;;5020466;28;20084;-56
2021/12/01 09:22:03;;;;;;;1.60;0.80;;;8.40;99.90;;;;;;5022055;28;20081;-55
2021/12/01 09:24:30;;;;;;;1.52;0.75;;;8.40;99.90;;;;;;5021418;28;20136;-55
2021/12/01 09:26:57;;;;;;;1.55;0.70;;;8.50;99.90;;;;;;5021785;28;20054;-56
2021/12/01 09:29:27;;;;;;;1.38;0.65;;;8.50;99.90;;;;;;5019814;28;20474;-56
2021/12/01 09:31:57;;;;;;;2.08;0.57;;;8.50;99.90;;;;;;5021768;28;20107;-56
2021/12/01 09:34:24;;;;;;;1.10;0.50;;;8.60;99.90;;;;;;5020411;28;20045;-54
2021/12/01 09:36:51;;;;;;;1.48;0.50;;;8.60;99.90;;;;;;5022906;28;20140;-55
2021/12/01 09:39:17;;;;;;;1.13;0.50;;;8.60;99.90;;;;;;5020957;28;20081;-56
2021/12/01 09:41:44;;;;;;;1.58;0.40;;;8.60;99.90;;;;;;5021838;28;20689;-56
2021/12/01 09:44:11;;;;;;;1.90;0.70;;;8.70;99.90;;;;;;5020316;28;20537;-52
2021/12/01 09:46:38;;;;;;;1.70;0.80;;;8.70;99.90;;;;;;5022042;28;20092;-56
2021/12/01 09:49:05;;;;;;;1.35;0.50;;;8.70;99.90;;;;;;5019349;28;20085;-56
2021/12/01 09:51:31;;;;;;;1.33;0.45;;;8.70;99.90;;;;;;5020487;28;20140;-57
2021/12/01 09:54:00;;;;;;;0.90;0.40;;;8.70;99.90;;;;;;5018609;28;20107;-55
2021/12/01 09:56:27;;;;;;;1.33;0.70;;;8.70;99.90;;;;;;5016685;28;20103;-56
2021/12/01 09:58:54;;;;;;;2.03;0.70;;;8.70;99.90;;;;;;5019727;28;20143;-57
2021/12/01 10:01:22;;;;;;;1.13;0.55;;;8.80;99.90;;;;;;5012065;28;20161;-55
2021/12/01 10:03:50;;;;;;;0.77;0.40;;;8.80;99.90;;;;;;5017806;28;20075;-56
2021/12/01 10:06:18;;;;;;;1.30;0.70;;;8.80;99.90;;;;;;5021799;28;20115;-54
2021/12/01 10:08:52;;;;;;;1.33;0.70;;;8.80;99.90;;;;;;5023010;28;20551;-58
2021/12/01 10:11:30;;;;;;;1.25;0.65;;;8.60;99.90;;;;;;5022927;28;20539;-55
2021/12/01 10:14:05;;;;;;;2.53;0.85;;;8.70;99.90;;;;;;5022932;28;20501;-56
2021/12/01 10:16:34;;;;;;;1.58;0.70;;;8.60;99.90;;;;;;5022693;28;20405;-56
2021/12/01 10:19:03;;;;;;;2.50;1.17;;;8.60;99.90;;;;;;5021465;28;20050;-57
2021/12/01 10:21:32;;;;;;;1.77;0.70;;;8.60;99.90;;;;;;4999168;28;20127;-56
2021/12/01 10:24:01;;;;;;;2.13;0.80;;;8.70;99.90;;;;;;5021915;28;20435;-55
2021/12/01 10:26:33;;;;;;;3.80;0.80;;;8.70;99.90;;;;;;5022870;28;20113;-57
2021/12/01 10:29:02;;;;;;;3.03;0.70;;;8.70;99.90;;;;;;5021052;28;20163;-56
2021/12/01 10:31:52;;;;;;;1.52;0.88;;;8.70;99.90;;;;;;5017426;28;20131;-56
2021/12/01 10:34:35;;;;;;;2.72;0.77;;;8.70;99.90;;;;;;5012748;28;20791;-54
2021/12/01 10:37:09;;;;;;;2.42;0.85;;;8.80;99.90;;;;;;5020980;28;20133;-56
2021/12/01 10:39:40;;;;;;;2.40;0.90;;;8.80;99.90;;;;;;5021231;28;20061;-58
2021/12/01 10:42:09;;;;;;;2.05;0.90;;;8.80;99.90;;;;;;5020081;28;20459;-57
2021/12/01 10:44:36;;;;;;;3.20;0.90;;;8.90;99.90;;;;;;5016797;28;20068;-58
2021/12/01 10:47:10;;;;;;;6.03;1.17;;;8.90;99.90;;;;;;5021287;28;20107;-55
2021/12/01 10:49:47;;;;;;;3.85;1.17;;;8.90;99.90;;;;;;5018413;28;20049;-59
2021/12/01 10:52:33;;;;;;;1.73;0.73;;;8.90;99.90;;;;;;5002020;28;20136;-58
2021/12/01 10:55:12;;;;;;;3.42;1.13;;;8.90;99.90;;;;;;5020678;28;20049;-57
2021/12/01 10:57:54;;;;;;;3.58;1.48;;;9.00;99.90;;;;;;5019205;28;20147;-58
2021/12/01 11:00:26;;;;;;;2.38;0.95;;;9.10;99.90;;;;;;5019221;28;20533;-55
2021/12/01 11:02:56;;;;;;;6.00;0.90;;;9.20;99.90;;;;;;5018714;28;20419;-58
2021/12/01 11:05:31;;;;;;;3.25;1.15;;;9.30;99.90;;;;;;5019016;28;20037;-56
2021/12/01 11:08:18;;;;;;;3.90;1.20;;;9.30;99.90;;;;;;5020689;28;20152;-58
2021/12/01 11:10:52;;;;;;;4.38;1.25;;;9.50;99.90;;;;;;5019349;28;20136;-58
2021/12/01 11:13:19;;;;;;;4.57;1.30;;;9.60;99.90;;;;;;5018878;28;20925;-54
2021/12/01 11:15:57;;;;;;;4.30;1.20;;;9.70;99.90;;;;;;5018633;28;20175;-54
2021/12/01 11:18:49;;;;;;;4.03;1.10;;;9.70;99.90;;;;;;5019036;28;20049;-56
2021/12/01 11:21:23;;;;;;;4.32;1.52;;;9.70;99.90;;;;;;5020157;28;20049;-56
2021/12/01 11:23:53;;;;;;;4.70;1.27;;;9.80;99.30;;;;;;5019357;28;20083;-55
2021/12/01 11:26:26;;;;;;;4.30;1.10;;;9.70;99.00;;;;;;5021631;28;20142;-56
2021/12/01 11:28:55;;;;;;;2.80;1.33;;;9.80;99.20;;;;;;5019772;28;20544;-54
2021/12/01 11:31:26;;;;;;;3.97;1.35;;;9.80;99.20;;;;;;5014605;28;20370;-56
2021/12/01 11:34:00;;;;;;;5.03;1.55;;;9.80;98.80;;;;;;5021149;28;20481;-56
2021/12/01 11:36:30;;;;;;;6.40;1.90;;;9.80;98.40;;;;;;5019064;28;20099;-55
2021/12/01 11:38:59;;;;;;;6.80;1.80;;;9.80;98.70;;;;;;5020548;28;20136;-56
2021/12/01 11:41:28;;;;;;;4.65;1.67;;;9.80;98.20;;;;;;5017006;28;20335;-57
2021/12/01 11:43:58;;;;;;;3.45;1.08;;;9.80;97.70;;;;;;5018407;28;20057;-57
2021/12/01 11:46:25;;;;;;;8.50;1.95;;;9.80;98.10;;;;;;5014544;28;20053;-56
2021/12/01 11:48:56;;;;;;;3.90;1.30;;;9.80;97.70;;;;;;5017829;28;20075;-58
2021/12/01 11:51:35;;;;;;;5.22;1.98;;;9.90;97.90;;;;;;5018576;28;20137;-57
2021/12/01 11:54:11;;;;;;;5.72;1.77;;;10.00;97.50;;;;;;5015015;28;20555;-58
2021/12/01 11:56:39;;;;;;;4.68;1.60;;;10.00;97.40;;;;;;5017865;28;20137;-57
2021/12/01 11:59:15;;;;;;;6.07;1.52;;;10.10;97.30;;;;;;5015723;28;20053;-56
2021/12/01 12:01:46;;;;;;;4.55;1.80;;;10.20;97.50;;;;;;5018124;28;20164;-59
2021/12/01 12:04:15;;;;;;;6.38;1.60;;;10.30;97.00;;;;;;5017074;28;20441;-59
2021/12/01 12:06:48;;;;;;;5.65;1.70;;;10.20;96.20;;;;;;5017589;28;20065;-56
2021/12/01 12:09:19;;;;;;;3.55;1.33;;;10.20;96.40;;;;;;5016292;28;20144;-59
2021/12/01 12:11:54;;;;;;;4.65;1.80;;;10.20;96.80;;;;;;5016992;28;20153;-58
2021/12/01 12:14:27;;;;;;;5.70;1.80;;;10.40;96.10;;;;;;5015829;28;20053;-59
2021/12/01 12:17:40;;;;;;;4.28;1.35;;;10.40;96.20;;;;;;5015855;28;20148;-58
2021/12/01 12:20:20;;;;;;;5.72;1.60;;;10.30;95.30;;;;;;5007225;28;20107;-59
2021/12/01 12:22:47;;;;;;;3.45;1.42;;;10.20;96.20;;;;;;5016929;28;20053;-59
2021/12/01 12:25:54;;;;;;;6.47;1.60;;;10.20;96.20;;;;;;5016881;28;20852;-58
2021/12/01 12:28:38;;;;;;;5.47;1.33;;;10.20;96.60;;;;;;5017408;28;20073;-58
2021/12/01 12:31:07;;;;;;;7.22;1.50;;;10.20;96.00;;;;;;5016424;28;20081;-57
2021/12/01 12:33:38;;;;;;;4.78;1.27;;;10.10;95.70;;;;;;5014149;28;20548;-60
2021/12/01 12:36:15;;;;;;;3.05;1.27;;;10.10;96.20;;;;;;5013568;28;20055;-59
2021/12/01 12:39:05;;;;;;;4.50;1.48;;;10.20;96.40;;;;;;5014602;28;20156;-59
2021/12/01 12:41:32;;;;;;;4.60;1.60;;;10.10;96.40;;;;;;5017372;28;20408;-57
2021/12/01 12:44:27;;;;;;;3.30;1.20;;;10.10;96.30;;;;;;5015228;28;20053;-58
2021/12/01 12:47:23;;;;;;;4.43;1.73;;;10.10;96.60;;;;;;5018672;28;20061;-57
2021/12/01 12:49:51;;;;;;;4.85;1.35;;;10.00;96.60;;;;;;5016329;28;20049;-57
2021/12/01 12:52:23;;;;;;;3.85;1.45;;;10.00;95.70;;;;;;5017172;28;20060;-57
2021/12/01 12:55:01;;;;;;;3.83;1.30;;;10.00;96.00;;;;;;5017762;28;20248;-57
2021/12/01 12:57:54;;;;;;;7.63;1.70;;;10.10;96.10;;;;;;5018117;28;20093;-58
2021/12/01 13:00:32;;;;;;;3.23;1.13;;;10.20;95.90;;;;;;5016534;28;20049;-57
2021/12/01 13:03:24;;;;;;;2.58;1.02;;;10.20;95.40;;;;;;5018495;28;20096;-58
2021/12/01 13:05:56;;;;;;;;;;;10.20;95.00;;;;;;5009575;28;20103;-57